createdAt,value
2022-08-26T00:00:56.997Z,19.74
2022-08-26T00:02:59.203Z,19.73
2022-08-26T00:05:00.954Z,19.71
2022-08-26T00:07:02.949Z,19.72
2022-08-26T00:09:08.133Z,19.68
2022-08-26T00:11:10.247Z,19.67
2022-08-26T00:13:13.038Z,19.64
2022-08-26T00:15:19.085Z,19.63
2022-08-26T00:17:21.771Z,19.59
2022-08-26T00:19:23.681Z,19.59
2022-08-26T00:21:25.482Z,19.59
2022-08-26T00:23:27.196Z,19.58
2022-08-26T00:25:42.460Z,19.56
2022-08-26T00:27:44.611Z,19.55
2022-08-26T00:29:46.465Z,19.54
2022-08-26T00:31:48.458Z,19.53
2022-08-26T00:33:50.985Z,19.49
2022-08-26T00:35:53.117Z,19.48
2022-08-26T00:37:55.764Z,19.45
2022-08-26T00:39:57.948Z,19.44
2022-08-26T00:42:02.503Z,19.42
2022-08-26T00:44:04.866Z,19.40
2022-08-26T00:46:31.487Z,19.40
2022-08-26T00:48:35.768Z,19.39
2022-08-26T00:50:41.920Z,19.33
2022-08-26T00:52:46.068Z,19.32
2022-08-26T00:54:55.655Z,19.29
2022-08-26T00:56:59.841Z,19.27
2022-08-26T00:59:11.962Z,19.26
2022-08-26T01:01:15.256Z,19.25
2022-08-26T01:03:19.712Z,19.24
2022-08-26T01:05:23.794Z,19.23
2022-08-26T01:07:27.372Z,19.22
2022-08-26T01:09:30.651Z,19.21
2022-08-26T01:11:33.139Z,19.19
2022-08-26T01:13:37.193Z,19.16
2022-08-26T01:15:49.337Z,19.12
2022-08-26T01:17:52.354Z,19.10
2022-08-26T01:20:03.413Z,19.05
2022-08-26T01:22:28.757Z,19.07
2022-08-26T01:24:31.659Z,19.02
2022-08-26T01:26:40.517Z,19.01
2022-08-26T01:28:43.405Z,19.00
2022-08-26T01:30:52.596Z,18.97
2022-08-26T01:32:58.038Z,18.96
2022-08-26T01:35:00.936Z,18.95
2022-08-26T01:37:07.729Z,18.93
2022-08-26T01:39:10.375Z,18.94
2022-08-26T01:41:19.680Z,18.93
2022-08-26T01:43:26.043Z,18.94
2022-08-26T01:45:42.340Z,18.92
2022-08-26T01:47:46.131Z,18.93
2022-08-26T01:49:53.609Z,18.93
2022-08-26T01:51:57.774Z,18.93
2022-08-26T01:54:00.201Z,18.93
2022-08-26T01:56:03.755Z,18.90
2022-08-26T01:58:11.768Z,18.92
2022-08-26T02:00:16.221Z,18.93
2022-08-26T02:02:18.127Z,18.93
2022-08-26T02:04:26.143Z,18.93
2022-08-26T02:06:27.958Z,18.91
2022-08-26T02:08:43.860Z,18.92
2022-08-26T02:10:45.725Z,18.89
2022-08-26T02:12:47.809Z,18.88
2022-08-26T02:15:05.570Z,18.88
2022-08-26T02:17:10.081Z,18.87
2022-08-26T02:19:17.565Z,18.87
2022-08-26T02:21:19.295Z,18.86
2022-08-26T02:23:21.029Z,18.86
2022-08-26T02:25:32.815Z,18.87
2022-08-26T02:27:35.408Z,18.87
2022-08-26T02:29:43.607Z,18.82
2022-08-26T02:31:45.675Z,18.82
2022-08-26T02:33:47.457Z,18.81
2022-08-26T02:35:49.188Z,18.78
2022-08-26T02:37:52.285Z,18.77
2022-08-26T02:39:54.392Z,18.74
2022-08-26T02:41:56.331Z,18.75
2022-08-26T02:43:58.103Z,18.72
2022-08-26T02:46:01.987Z,18.72
2022-08-26T02:48:12.351Z,18.71
2022-08-26T02:50:14.685Z,18.72
2022-08-26T02:52:18.898Z,18.73
2022-08-26T02:54:21.632Z,18.67
2022-08-26T02:56:23.725Z,18.70
2022-08-26T02:58:25.486Z,18.67
2022-08-26T03:00:29.127Z,18.68
2022-08-26T03:02:30.863Z,18.69
2022-08-26T03:04:33.345Z,18.67
2022-08-26T03:06:35.766Z,18.66
2022-08-26T03:08:39.309Z,18.65
2022-08-26T03:10:41.357Z,18.67
2022-08-26T03:12:47.399Z,18.67
2022-08-26T03:14:49.785Z,18.64
2022-08-26T03:16:54.490Z,18.64
2022-08-26T03:18:56.299Z,18.64
2022-08-26T03:20:58.204Z,18.65
2022-08-26T03:23:00.427Z,18.65
2022-08-26T03:25:07.326Z,18.62
2022-08-26T03:27:09.001Z,18.62
2022-08-26T03:29:29.221Z,18.60
2022-08-26T03:31:34.782Z,18.63
2022-08-26T03:33:36.509Z,18.60
2022-08-26T03:35:41.741Z,18.62
2022-08-26T03:37:43.636Z,18.60
2022-08-26T03:39:45.962Z,18.58
2022-08-26T03:41:48.038Z,18.59
2022-08-26T03:43:50.999Z,18.59
2022-08-26T03:45:52.766Z,18.55
2022-08-26T03:47:54.663Z,18.53
2022-08-26T03:49:59.777Z,18.51
2022-08-26T03:52:02.746Z,18.52
2022-08-26T03:54:08.436Z,18.49
2022-08-26T03:56:10.804Z,18.48
2022-08-26T03:58:12.618Z,18.51
2022-08-26T04:00:18.468Z,18.45
2022-08-26T04:02:20.409Z,18.44
2022-08-26T04:04:22.841Z,18.35
2022-08-26T04:06:27.599Z,18.37
2022-08-26T04:08:29.357Z,18.36
2022-08-26T04:10:31.265Z,18.33
2022-08-26T04:12:32.992Z,18.31
2022-08-26T04:14:35.733Z,18.29
2022-08-26T04:16:39.908Z,18.28
2022-08-26T04:18:46.461Z,18.26
2022-08-26T04:20:49.333Z,18.26
2022-08-26T04:22:51.127Z,18.21
2022-08-26T04:25:04.157Z,18.14
2022-08-26T04:27:08.749Z,18.13
2022-08-26T04:29:20.850Z,18.12
2022-08-26T04:31:22.889Z,18.10
2022-08-26T04:33:32.534Z,18.10
2022-08-26T04:35:37.112Z,18.09
2022-08-26T04:37:39.393Z,18.07
2022-08-26T04:39:44.817Z,18.06
2022-08-26T04:41:50.902Z,18.08
2022-08-26T04:43:53.584Z,18.05
2022-08-26T04:45:56.637Z,18.06
2022-08-26T04:47:58.517Z,18.02
2022-08-26T04:50:00.317Z,18.02
2022-08-26T04:52:05.233Z,18.03
2022-08-26T04:54:07.529Z,18.03
2022-08-26T04:56:09.218Z,18.03
2022-08-26T04:58:15.249Z,18.02
2022-08-26T05:00:17.390Z,18.02
2022-08-26T05:02:19.427Z,18.02
2022-08-26T05:04:21.392Z,18.02
2022-08-26T05:06:24.348Z,18.01
2022-08-26T05:08:26.336Z,17.99
2022-08-26T05:10:29.224Z,18.01
2022-08-26T05:12:31.530Z,17.99
2022-08-26T05:14:33.648Z,18.01
2022-08-26T05:16:35.783Z,17.98
2022-08-26T05:18:41.272Z,17.99
2022-08-26T05:20:47.839Z,17.99
2022-08-26T05:22:49.545Z,18.00
2022-08-26T05:25:04.217Z,18.00
2022-08-26T05:27:11.513Z,18.02
2022-08-26T05:29:14.163Z,18.02
2022-08-26T05:31:19.549Z,18.02
2022-08-26T05:33:22.088Z,18.03
2022-08-26T05:35:23.820Z,18.04
2022-08-26T05:37:25.543Z,18.04
2022-08-26T05:39:27.298Z,18.04
2022-08-26T05:41:34.579Z,18.06
2022-08-26T05:43:38.522Z,18.06
2022-08-26T05:45:50.270Z,18.06
2022-08-26T05:47:52.029Z,18.05
2022-08-26T05:49:53.696Z,18.08
2022-08-26T05:51:55.393Z,18.06
2022-08-26T05:53:57.157Z,18.07
2022-08-26T05:56:00.101Z,18.06
2022-08-26T05:58:02.753Z,18.08
2022-08-26T06:00:05.269Z,18.08
2022-08-26T06:02:08.163Z,18.08
2022-08-26T06:04:11.441Z,18.09
2022-08-26T06:06:21.554Z,18.12
2022-08-26T06:08:29.638Z,18.11
2022-08-26T06:10:33.119Z,18.12
2022-08-26T06:12:35.007Z,18.13
2022-08-26T06:14:37.173Z,18.13
2022-08-26T06:16:41.363Z,18.12
2022-08-26T06:18:47.335Z,18.13
2022-08-26T06:20:57.904Z,18.11
2022-08-26T06:23:18.328Z,18.11
2022-08-26T06:25:38.344Z,18.13
2022-08-26T06:27:40.107Z,18.14
2022-08-26T06:29:41.989Z,18.15
2022-08-26T06:31:43.825Z,18.18
2022-08-26T06:33:45.655Z,18.20
2022-08-26T06:35:48.281Z,18.22
2022-08-26T06:37:49.991Z,18.22
2022-08-26T06:39:51.787Z,18.24
2022-08-26T06:41:53.554Z,18.26
2022-08-26T06:43:56.912Z,18.29
2022-08-26T06:46:08.455Z,18.31
2022-08-26T06:48:11.035Z,18.32
2022-08-26T06:50:14.199Z,18.35
2022-08-26T06:52:21.183Z,18.38
2022-08-26T06:54:31.802Z,18.40
2022-08-26T06:56:37.571Z,18.43
2022-08-26T06:58:40.827Z,18.44
2022-08-26T07:00:47.383Z,18.45
2022-08-26T07:02:49.546Z,18.49
2022-08-26T07:05:02.621Z,18.52
2022-08-26T07:07:04.399Z,18.56
2022-08-26T07:09:09.976Z,18.58
2022-08-26T07:11:12.395Z,18.58
2022-08-26T07:13:14.225Z,18.60
2022-08-26T07:15:16.307Z,18.59
2022-08-26T07:17:18.319Z,18.61
2022-08-26T07:19:30.505Z,18.58
2022-08-26T07:21:33.580Z,18.59
2022-08-26T07:23:36.427Z,18.64
2022-08-26T07:25:40.641Z,18.66
2022-08-26T07:27:43.623Z,18.66
2022-08-26T07:29:45.571Z,18.60
2022-08-26T07:31:47.370Z,18.68
2022-08-26T07:33:50.431Z,18.69
2022-08-26T07:35:52.572Z,18.75
2022-08-26T07:37:57.050Z,18.77
2022-08-26T07:40:00.306Z,18.84
2022-08-26T07:42:07.559Z,18.77
2022-08-26T07:44:10.261Z,18.87
2022-08-26T07:46:18.517Z,18.94
2022-08-26T07:48:23.741Z,18.99
2022-08-26T07:50:49.001Z,19.02
2022-08-26T07:52:48.710Z,19.03
2022-08-26T07:54:59.176Z,19.09
2022-08-26T07:57:01.635Z,19.09
2022-08-26T07:59:13.639Z,19.15
2022-08-26T08:01:16.156Z,19.23
2022-08-26T08:03:17.879Z,19.26
2022-08-26T08:05:22.327Z,19.29
2022-08-26T08:07:45.062Z,19.23
2022-08-26T08:09:51.372Z,19.31
2022-08-26T08:11:53.652Z,19.36
2022-08-26T08:13:56.908Z,19.41
2022-08-26T08:15:58.694Z,19.44
2022-08-26T08:18:01.236Z,19.53
2022-08-26T08:20:04.503Z,19.55
2022-08-26T08:22:17.050Z,19.50
2022-08-26T08:24:19.405Z,19.53
2022-08-26T08:26:22.062Z,19.55
2022-08-26T08:28:23.816Z,19.56
2022-08-26T08:30:25.998Z,19.70
2022-08-26T08:32:29.750Z,19.67
2022-08-26T08:34:31.670Z,19.74
2022-08-26T08:36:36.131Z,19.77
2022-08-26T08:38:38.690Z,19.79
2022-08-26T08:40:42.389Z,19.75
2022-08-26T08:42:50.137Z,19.75
2022-08-26T08:45:04.027Z,19.77
2022-08-26T08:47:17.714Z,19.84
2022-08-26T08:49:20.235Z,19.94
2022-08-26T08:51:34.081Z,19.97
2022-08-26T08:53:43.082Z,19.86
2022-08-26T08:56:15.152Z,20.02
2022-08-26T08:58:21.473Z,20.03
2022-08-26T09:00:30.343Z,20.12
2022-08-26T09:02:47.898Z,20.19
2022-08-26T09:05:21.682Z,20.26
2022-08-26T09:07:36.718Z,20.37
2022-08-26T09:10:08.635Z,20.38
2022-08-26T09:12:20.507Z,20.44
2022-08-26T09:14:31.616Z,20.49
2022-08-26T09:16:51.715Z,20.55
2022-08-26T09:18:56.328Z,20.61
2022-08-26T09:21:05.822Z,20.68
2022-08-26T09:23:10.384Z,20.77
2022-08-26T09:25:14.413Z,20.74
2022-08-26T09:27:40.708Z,20.86
2022-08-26T09:29:45.522Z,20.99
2022-08-26T09:32:13.060Z,21.11
2022-08-26T09:34:17.360Z,21.25
2022-08-26T09:36:39.167Z,21.38
2022-08-26T09:38:42.218Z,21.37
2022-08-26T09:41:00.962Z,21.52
2022-08-26T09:43:22.919Z,21.68
2022-08-26T09:45:29.067Z,21.82
2022-08-26T09:47:39.129Z,21.94
2022-08-26T09:49:42.263Z,22.06
2022-08-26T09:51:44.357Z,22.21
2022-08-26T09:53:57.801Z,22.32
2022-08-26T09:56:23.864Z,22.34
2022-08-26T09:58:38.103Z,22.41
2022-08-26T10:00:43.269Z,22.54
2022-08-26T10:02:47.570Z,22.68
2022-08-26T10:05:09.668Z,22.80
2022-08-26T10:07:31.940Z,22.76
2022-08-26T10:09:39.279Z,22.96
2022-08-26T10:11:50.216Z,22.97
2022-08-26T10:13:56.917Z,23.08
2022-08-26T10:16:17.725Z,23.31
2022-08-26T10:18:25.182Z,23.43
2022-08-26T10:20:35.240Z,23.56
2022-08-26T10:22:43.017Z,23.70
2022-08-26T10:24:51.959Z,23.85
2022-08-26T10:27:35.001Z,23.98
2022-08-26T10:29:44.203Z,23.99
2022-08-26T10:31:55.311Z,23.98
2022-08-26T10:34:04.404Z,24.00
2022-08-26T10:36:39.263Z,24.02
2022-08-26T10:38:48.994Z,24.15
2022-08-26T10:41:13.903Z,23.99
2022-08-26T10:43:25.587Z,24.12
2022-08-26T10:45:30.335Z,24.26
2022-08-26T10:47:43.471Z,24.35
2022-08-26T10:49:49.273Z,24.45
2022-08-26T10:52:18.458Z,24.70
2022-08-26T10:54:35.209Z,24.76
2022-08-26T10:56:58.660Z,24.93
2022-08-26T10:59:44.549Z,24.93
2022-08-26T11:01:57.776Z,24.94
2022-08-26T11:04:17.334Z,25.17
2022-08-26T11:06:18.990Z,25.32
2022-08-26T11:08:20.790Z,25.45
2022-08-26T11:10:25.051Z,25.57
2022-08-26T11:12:36.161Z,25.73
2022-08-26T11:14:58.427Z,25.89
2022-08-26T11:17:01.532Z,26.09
2022-08-26T11:19:04.101Z,26.09
2022-08-26T11:21:44.502Z,26.08
2022-08-26T11:23:50.745Z,26.17
2022-08-26T11:26:09.884Z,25.99
2022-08-26T11:28:36.338Z,26.08
2022-08-26T11:30:43.584Z,25.92
2022-08-26T11:32:55.240Z,25.82
2022-08-26T11:35:07.396Z,25.59
2022-08-26T11:37:15.783Z,25.29
2022-08-26T11:39:20.424Z,25.27
2022-08-26T11:41:27.484Z,25.38
2022-08-26T11:43:30.493Z,25.34
2022-08-26T11:45:41.723Z,25.52
2022-08-26T11:47:44.795Z,25.66
2022-08-26T11:49:46.539Z,25.80
2022-08-26T11:51:48.732Z,25.91
2022-08-26T11:53:51.354Z,26.02
2022-08-26T11:55:55.878Z,26.14
2022-08-26T11:58:00.981Z,26.22
2022-08-26T12:00:04.105Z,26.32
2022-08-26T12:02:14.338Z,26.31
2022-08-26T12:04:38.241Z,26.35
2022-08-26T12:06:47.883Z,26.35
2022-08-26T12:08:51.725Z,26.53
2022-08-26T12:11:21.386Z,26.54
2022-08-26T12:13:26.511Z,26.72
2022-08-26T12:15:30.933Z,26.89
2022-08-26T12:17:33.649Z,26.98
2022-08-26T12:19:35.483Z,27.01
2022-08-26T12:21:37.729Z,27.17
2022-08-26T12:23:44.220Z,27.04
2022-08-26T12:25:46.649Z,27.19
2022-08-26T12:27:53.761Z,27.26
2022-08-26T12:30:17.960Z,27.28
2022-08-26T12:32:25.046Z,27.30
2022-08-26T12:34:28.336Z,27.19
2022-08-26T12:36:37.416Z,27.36
2022-08-26T12:38:40.586Z,27.24
2022-08-26T12:40:45.328Z,27.24
2022-08-26T12:42:47.634Z,27.14
2022-08-26T12:44:56.589Z,26.99
2022-08-26T12:47:03.895Z,26.99
2022-08-26T12:49:05.791Z,27.07
2022-08-26T12:51:14.669Z,27.16
2022-08-26T12:53:25.629Z,26.98
2022-08-26T12:55:33.202Z,27.04
2022-08-26T12:57:37.596Z,27.14
2022-08-26T12:59:39.467Z,27.23
2022-08-26T13:01:43.783Z,27.45
2022-08-26T13:03:46.626Z,27.60
2022-08-26T13:05:48.377Z,27.75
2022-08-26T13:08:10.557Z,27.75
2022-08-26T13:10:36.506Z,27.82
2022-08-26T13:12:38.391Z,27.91
2022-08-26T13:14:40.589Z,28.03
2022-08-26T13:16:42.609Z,28.14
2022-08-26T13:18:44.330Z,28.14
2022-08-26T13:20:46.314Z,28.17
2022-08-26T13:22:51.708Z,28.21
2022-08-26T13:25:04.239Z,28.38
2022-08-26T13:27:08.372Z,28.32
2022-08-26T13:29:10.666Z,28.27
2022-08-26T13:31:14.408Z,28.07
2022-08-26T13:33:18.632Z,28.12
2022-08-26T13:35:21.427Z,28.15
2022-08-26T13:37:24.401Z,28.10
2022-08-26T13:39:36.890Z,28.28
2022-08-26T13:41:38.903Z,28.41
2022-08-26T13:43:40.594Z,28.54
2022-08-26T13:45:42.744Z,28.72
2022-08-26T13:47:44.716Z,28.87
2022-08-26T13:49:46.994Z,28.95
2022-08-26T13:51:48.785Z,29.08
2022-08-26T13:53:51.532Z,28.77
2022-08-26T13:55:53.348Z,28.96
2022-08-26T13:57:56.750Z,29.04
2022-08-26T13:59:59.588Z,29.22
2022-08-26T14:02:02.971Z,29.39
2022-08-26T14:04:04.664Z,29.47
2022-08-26T14:06:06.364Z,29.58
2022-08-26T14:08:08.506Z,29.67
2022-08-26T14:10:10.772Z,29.42
2022-08-26T14:12:12.586Z,29.32
2022-08-26T14:14:14.267Z,29.33
2022-08-26T14:16:25.126Z,29.52
2022-08-26T14:18:35.449Z,29.44
2022-08-26T14:20:39.749Z,29.68
2022-08-26T14:23:03.650Z,29.54
2022-08-26T14:25:06.162Z,29.37
2022-08-26T14:27:07.905Z,29.36
2022-08-26T14:29:12.381Z,29.48
2022-08-26T14:31:17.331Z,29.43
2022-08-26T14:33:23.575Z,29.71
2022-08-26T14:35:28.403Z,29.93
2022-08-26T14:37:30.098Z,30.18
2022-08-26T14:39:31.944Z,30.27
2022-08-26T14:41:37.219Z,30.45
2022-08-26T14:43:48.366Z,30.71
2022-08-26T14:45:50.049Z,30.74
2022-08-26T14:47:53.651Z,30.76
2022-08-26T14:49:55.404Z,30.55
2022-08-26T14:51:57.181Z,30.40
2022-08-26T14:54:14.044Z,30.05
2022-08-26T14:56:16.840Z,29.69
2022-08-26T14:58:18.572Z,29.36
2022-08-26T15:00:20.817Z,29.13
2022-08-26T15:02:32.578Z,28.92
2022-08-26T15:04:35.576Z,28.58
2022-08-26T15:06:38.224Z,28.59
2022-08-26T15:08:40.209Z,28.73
2022-08-26T15:10:41.880Z,28.81
2022-08-26T15:12:44.155Z,28.73
2022-08-26T15:14:45.974Z,28.91
2022-08-26T15:16:49.544Z,29.11
2022-08-26T15:18:51.777Z,29.39
2022-08-26T15:20:53.487Z,29.71
2022-08-26T15:22:55.413Z,29.76
2022-08-26T15:25:05.526Z,29.81
2022-08-26T15:27:07.380Z,29.49
2022-08-26T15:29:09.164Z,29.31
2022-08-26T15:31:10.948Z,29.33
2022-08-26T15:33:15.370Z,29.17
2022-08-26T15:35:17.348Z,29.06
2022-08-26T15:37:19.096Z,28.81
2022-08-26T15:39:21.036Z,28.94
2022-08-26T15:41:24.463Z,29.01
2022-08-26T15:43:29.154Z,29.14
2022-08-26T15:45:33.318Z,29.38
2022-08-26T15:47:35.468Z,29.48
2022-08-26T15:49:48.515Z,29.74
2022-08-26T15:51:53.173Z,29.67
2022-08-26T15:53:56.476Z,29.88
2022-08-26T15:55:59.102Z,29.57
2022-08-26T15:58:01.341Z,29.62
2022-08-26T16:00:04.838Z,29.76
2022-08-26T16:02:07.418Z,29.82
2022-08-26T16:04:09.712Z,29.81
2022-08-26T16:06:14.567Z,29.67
2022-08-26T16:08:16.427Z,29.52
2022-08-26T16:10:18.652Z,29.33
2022-08-26T16:12:21.077Z,29.13
2022-08-26T16:14:23.185Z,28.95
2022-08-26T16:16:24.919Z,28.79
2022-08-26T16:18:27.802Z,28.61
2022-08-26T16:20:32.490Z,28.49
2022-08-26T16:22:34.203Z,28.23
2022-08-26T16:24:36.719Z,28.15
2022-08-26T16:26:40.098Z,28.00
2022-08-26T16:28:42.137Z,27.78
2022-08-26T16:30:45.630Z,27.73
2022-08-26T16:32:48.457Z,27.65
2022-08-26T16:34:56.187Z,27.54
2022-08-26T16:36:58.623Z,27.46
2022-08-26T16:39:00.632Z,27.38
2022-08-26T16:41:02.433Z,27.32
2022-08-26T16:43:04.238Z,27.24
2022-08-26T16:45:06.683Z,27.20
2022-08-26T16:47:08.334Z,27.05
2022-08-26T16:49:10.046Z,27.03
2022-08-26T16:51:18.668Z,26.98
2022-08-26T16:53:20.350Z,26.94
2022-08-26T16:55:22.689Z,26.90
2022-08-26T16:57:24.405Z,26.88
2022-08-26T16:59:26.287Z,26.85
2022-08-26T17:01:28.061Z,26.82
2022-08-26T17:03:29.763Z,26.72
2022-08-26T17:05:31.467Z,26.69
2022-08-26T17:07:35.510Z,26.61
2022-08-26T17:09:37.557Z,26.59
2022-08-26T17:11:43.919Z,26.37
2022-08-26T17:13:45.552Z,26.43
2022-08-26T17:15:54.156Z,26.39
2022-08-26T17:18:00.102Z,26.38
2022-08-26T17:20:08.007Z,26.35
2022-08-26T17:22:09.692Z,26.33
2022-08-26T17:24:11.531Z,26.34
2022-08-26T17:26:13.208Z,26.31
2022-08-26T17:28:15.315Z,26.24
2022-08-26T17:30:17.806Z,26.21
2022-08-26T17:32:19.515Z,26.16
2022-08-26T17:34:21.982Z,26.12
2022-08-26T17:36:27.474Z,26.10
2022-08-26T17:38:30.016Z,26.06
2022-08-26T17:40:31.896Z,26.03
2022-08-26T17:42:33.638Z,26.00
2022-08-26T17:44:35.477Z,25.98
2022-08-26T17:46:38.499Z,25.96
2022-08-26T17:48:41.455Z,25.94
2022-08-26T17:50:46.295Z,25.89
2022-08-26T17:52:51.776Z,25.85
2022-08-26T17:54:59.278Z,25.85
2022-08-26T17:57:00.984Z,25.82
2022-08-26T17:59:04.055Z,25.80
2022-08-26T18:01:06.392Z,25.77
2022-08-26T18:03:08.503Z,25.75
2022-08-26T18:05:13.128Z,25.71
2022-08-26T18:07:16.255Z,25.70
2022-08-26T18:09:18.234Z,25.66
2022-08-26T18:11:23.190Z,25.66
2022-08-26T18:13:25.350Z,25.64
2022-08-26T18:15:27.939Z,25.60
2022-08-26T18:17:30.047Z,25.58
2022-08-26T18:19:32.046Z,25.55
2022-08-26T18:21:36.465Z,25.54
2022-08-26T18:23:38.424Z,25.52
2022-08-26T18:25:44.318Z,25.53
2022-08-26T18:27:46.358Z,25.48
2022-08-26T18:29:48.774Z,25.44
2022-08-26T18:31:50.649Z,25.44
2022-08-26T18:33:53.144Z,25.42
2022-08-26T18:35:55.024Z,25.40
2022-08-26T18:37:58.518Z,25.39
2022-08-26T18:40:13.124Z,25.37
2022-08-26T18:42:15.276Z,25.34
2022-08-26T18:44:19.438Z,25.28
2022-08-26T18:46:25.305Z,25.30
2022-08-26T18:48:28.655Z,25.25
2022-08-26T18:50:31.291Z,25.24
2022-08-26T18:52:33.284Z,25.24
2022-08-26T18:54:36.512Z,25.23
2022-08-26T18:56:40.201Z,25.18
2022-08-26T18:58:42.121Z,25.17
2022-08-26T19:00:44.020Z,25.15
2022-08-26T19:02:47.047Z,25.16
2022-08-26T19:05:04.438Z,25.15
2022-08-26T19:07:07.509Z,25.12
2022-08-26T19:09:11.864Z,25.10
2022-08-26T19:11:17.721Z,25.09
2022-08-26T19:13:33.692Z,25.05
2022-08-26T19:15:42.756Z,25.09
2022-08-26T19:17:44.646Z,25.10
2022-08-26T19:19:47.127Z,25.10
2022-08-26T19:21:49.012Z,25.09
2022-08-26T19:23:52.230Z,25.11
2022-08-26T19:25:54.145Z,25.10
2022-08-26T19:27:56.142Z,25.09
2022-08-26T19:29:58.484Z,25.07
2022-08-26T19:32:02.089Z,25.08
2022-08-26T19:34:05.452Z,25.04
2022-08-26T19:36:11.429Z,25.02
2022-08-26T19:38:16.406Z,25.00
2022-08-26T19:40:18.375Z,25.01
2022-08-26T19:42:22.543Z,24.97
2022-08-26T19:44:42.997Z,24.96
2022-08-26T19:46:45.546Z,24.91
2022-08-26T19:48:49.945Z,24.90
2022-08-26T19:50:54.885Z,24.90
2022-08-26T19:52:57.123Z,24.90
2022-08-26T19:55:06.814Z,24.84
2022-08-26T19:57:08.857Z,24.82
2022-08-26T19:59:10.864Z,24.80
2022-08-26T20:01:14.437Z,24.78
2022-08-26T20:03:16.498Z,24.79
2022-08-26T20:05:21.164Z,24.73
2022-08-26T20:07:23.240Z,24.66
2022-08-26T20:09:25.763Z,24.67
2022-08-26T20:11:27.548Z,24.66
2022-08-26T20:13:29.318Z,24.59
2022-08-26T20:15:31.010Z,24.59
2022-08-26T20:17:33.078Z,24.58
2022-08-26T20:19:53.848Z,24.56
2022-08-26T20:21:55.428Z,24.52
2022-08-26T20:24:00.708Z,24.49
2022-08-26T20:26:03.213Z,24.47
2022-08-26T20:28:05.287Z,24.44
2022-08-26T20:30:09.752Z,24.42
2022-08-26T20:32:12.253Z,24.34
2022-08-26T20:34:18.351Z,24.36
2022-08-26T20:36:22.120Z,24.35
2022-08-26T20:38:26.370Z,24.29
2022-08-26T20:40:29.281Z,24.29
2022-08-26T20:42:31.203Z,24.28
2022-08-26T20:44:33.518Z,24.28
2022-08-26T20:46:35.955Z,24.27
2022-08-26T20:48:38.391Z,24.12
2022-08-26T20:50:40.802Z,24.18
2022-08-26T20:52:42.818Z,24.18
2022-08-26T20:54:44.844Z,24.18
2022-08-26T20:56:47.422Z,24.18
2022-08-26T20:58:50.113Z,24.12
2022-08-26T21:00:52.476Z,24.12
2022-08-26T21:02:54.596Z,24.11
2022-08-26T21:05:05.058Z,24.09
2022-08-26T21:07:07.166Z,24.07
2022-08-26T21:09:11.151Z,24.06
2022-08-26T21:11:13.558Z,24.04
2022-08-26T21:13:15.441Z,24.01
2022-08-26T21:15:17.487Z,23.97
2022-08-26T21:17:19.539Z,23.97
2022-08-26T21:19:22.020Z,23.86
2022-08-26T21:21:27.535Z,23.90
2022-08-26T21:23:29.900Z,23.87
2022-08-26T21:25:31.811Z,23.87
2022-08-26T21:27:35.963Z,23.81
2022-08-26T21:29:37.910Z,23.77
2022-08-26T21:31:45.496Z,23.74
2022-08-26T21:33:48.285Z,23.72
2022-08-26T21:35:54.611Z,23.72
2022-08-26T21:37:56.351Z,23.74
2022-08-26T21:39:59.697Z,23.72
2022-08-26T21:42:01.474Z,23.71
2022-08-26T21:44:03.612Z,23.70
2022-08-26T21:46:11.755Z,23.71
2022-08-26T21:48:13.409Z,23.62
2022-08-26T21:50:15.168Z,23.65
2022-08-26T21:52:17.990Z,23.65
2022-08-26T21:54:19.816Z,23.64
2022-08-26T21:56:23.328Z,23.61
2022-08-26T21:58:25.031Z,23.61
2022-08-26T22:00:26.742Z,23.59
2022-08-26T22:02:28.549Z,23.58
2022-08-26T22:04:30.282Z,23.58
2022-08-26T22:06:34.546Z,23.56
2022-08-26T22:08:36.707Z,23.54
2022-08-26T22:10:41.595Z,23.55
2022-08-26T22:12:43.328Z,23.52
2022-08-26T22:14:45.700Z,23.47
2022-08-26T22:16:50.500Z,23.48
2022-08-26T22:18:54.828Z,23.48
2022-08-26T22:21:00.932Z,23.46
2022-08-26T22:23:03.109Z,23.44
2022-08-26T22:25:06.485Z,23.43
2022-08-26T22:27:09.089Z,23.44
2022-08-26T22:29:11.167Z,23.42
2022-08-26T22:31:14.330Z,23.40
2022-08-26T22:33:17.395Z,23.36
2022-08-26T22:35:28.457Z,23.33
2022-08-26T22:37:31.346Z,23.33
2022-08-26T22:39:33.365Z,23.30
2022-08-26T22:41:35.490Z,23.25
2022-08-26T22:43:38.479Z,23.25
2022-08-26T22:45:43.269Z,23.23
2022-08-26T22:47:45.045Z,23.21
2022-08-26T22:49:46.807Z,23.19
2022-08-26T22:51:48.824Z,23.17
2022-08-26T22:53:50.626Z,23.15
2022-08-26T22:55:52.330Z,23.13
2022-08-26T22:57:54.098Z,23.09
2022-08-26T22:59:56.002Z,23.07
2022-08-26T23:01:57.991Z,23.05
2022-08-26T23:03:59.874Z,23.00
2022-08-26T23:06:04.755Z,22.95
2022-08-26T23:08:07.885Z,22.95
2022-08-26T23:10:10.181Z,22.89
2022-08-26T23:12:12.424Z,22.91
2022-08-26T23:14:14.603Z,22.92
2022-08-26T23:16:16.430Z,22.91
2022-08-26T23:18:18.094Z,22.89
2022-08-26T23:20:19.994Z,22.88
2022-08-26T23:22:21.655Z,22.83
2022-08-26T23:24:51.198Z,22.82
2022-08-26T23:26:52.889Z,22.75
2022-08-26T23:28:55.527Z,22.75
2022-08-26T23:30:57.673Z,22.71
2022-08-26T23:32:59.605Z,22.68
2022-08-26T23:35:06.516Z,22.69
2022-08-26T23:37:09.380Z,22.66
2022-08-26T23:39:11.484Z,22.55
2022-08-26T23:41:13.644Z,22.57
2022-08-26T23:43:18.969Z,22.50
2022-08-26T23:45:22.315Z,22.37
2022-08-26T23:47:25.055Z,22.38
2022-08-26T23:49:27.843Z,22.38
2022-08-26T23:51:48.714Z,22.30
2022-08-26T23:53:51.333Z,22.33
2022-08-26T23:55:53.346Z,22.30
2022-08-26T23:57:55.292Z,22.25
2022-08-26T23:59:58.022Z,22.18
